Time;durP1;ratioP1;P1;durP2;ratioP2;P2;SDS_P1;SDS_P2;PMS_P1;PMS_P2;Temp;Humidity;BMP_temperature;BMP_pressure;BME280_temperature;BME280_humidity;BME280_pressure;Samples;Min_cycle;Max_cycle;Signal;HPM_P1;HPM_P2
2024/02/10 00:01:12;;;;;;;11.98;8.13;;;9.00;99.90;;;;;;5100212;27;20454;-76
2024/02/10 00:03:39;;;;;;;12.68;8.48;;;9.10;99.90;;;;;;5108541;28;20043;-76
2024/02/10 00:06:06;;;;;;;11.90;7.78;;;9.10;99.90;;;;;;5088906;28;20047;-76
2024/02/10 00:08:37;;;;;;;10.55;8.20;;;9.10;99.90;;;;;;5089161;28;20039;-76
2024/02/10 00:11:04;;;;;;;14.35;10.45;;;9.10;99.90;;;;;;5105980;28;20078;-76
2024/02/10 00:13:33;;;;;;;12.23;8.63;;;9.10;99.90;;;;;;5096915;28;20073;-76
2024/02/10 00:15:59;;;;;;;12.80;8.57;;;9.10;99.90;;;;;;5107722;27;20104;-76
2024/02/10 00:18:25;;;;;;;12.18;8.75;;;9.10;99.90;;;;;;5109496;27;20281;-76
2024/02/10 00:20:52;;;;;;;12.43;8.80;;;9.10;99.90;;;;;;5082012;28;20120;-76
2024/02/10 00:23:18;;;;;;;10.30;8.10;;;9.10;99.90;;;;;;5088281;27;20043;-76
2024/02/10 00:25:44;;;;;;;12.55;9.98;;;9.10;99.90;;;;;;5105534;27;20087;-76
2024/02/10 00:28:11;;;;;;;12.95;9.38;;;9.20;99.90;;;;;;5101501;27;20043;-77
2024/02/10 00:30:37;;;;;;;11.68;7.85;;;9.20;99.90;;;;;;5104400;27;20164;-77
2024/02/10 00:33:04;;;;;;;17.38;9.13;;;9.20;99.90;;;;;;5098733;28;20065;-76
2024/02/10 00:35:33;;;;;;;12.25;8.63;;;9.20;99.90;;;;;;5085374;28;20055;-76
2024/02/10 00:37:58;;;;;;;11.80;8.40;;;9.20;99.90;;;;;;5085664;28;20050;-76
2024/02/10 00:40:24;;;;;;;12.75;8.40;;;9.20;99.90;;;;;;5105422;28;20043;-76
2024/02/10 00:42:53;;;;;;;12.45;9.27;;;9.30;99.90;;;;;;5102076;27;20046;-77
2024/02/10 00:45:19;;;;;;;11.93;8.02;;;9.30;99.90;;;;;;5104271;28;20032;-77
2024/02/10 00:47:45;;;;;;;12.52;8.90;;;9.30;99.90;;;;;;5083993;28;20032;-77
2024/02/10 00:50:11;;;;;;;15.63;9.02;;;9.40;99.90;;;;;;5087746;28;20520;-77
2024/02/10 00:52:37;;;;;;;18.13;9.60;;;9.40;99.90;;;;;;5103334;27;20044;-77
2024/02/10 00:55:03;;;;;;;13.40;8.80;;;9.40;99.90;;;;;;5103078;28;20484;-76
2024/02/10 00:57:29;;;;;;;11.27;8.70;;;9.40;99.90;;;;;;5103830;27;20426;-76
2024/02/10 00:59:56;;;;;;;12.48;8.70;;;9.50;99.90;;;;;;5086507;28;20047;-77
2024/02/10 01:02:23;;;;;;;13.35;8.98;;;9.50;99.90;;;;;;5099282;28;20065;-76
2024/02/10 01:04:49;;;;;;;12.93;8.60;;;9.50;99.90;;;;;;5107125;27;20103;-76
2024/02/10 01:07:18;;;;;;;15.93;9.90;;;9.50;99.90;;;;;;5107002;27;20104;-76
2024/02/10 01:09:46;;;;;;;11.18;8.52;;;9.50;99.90;;;;;;5118549;27;20477;-76
2024/02/10 01:12:18;;;;;;;13.38;9.43;;;9.50;99.90;;;;;;5085749;28;20057;-76
2024/02/10 01:14:44;;;;;;;13.52;8.65;;;9.50;99.90;;;;;;5088295;28;20513;-76
2024/02/10 01:17:10;;;;;;;14.20;9.05;;;9.50;99.90;;;;;;5088821;28;20055;-76
2024/02/10 01:19:51;;;;;;;12.40;9.43;;;9.50;99.90;;;;;;5092577;28;20031;-76
2024/02/10 01:22:22;;;;;;;12.02;9.52;;;9.50;99.90;;;;;;5085382;28;20483;-77
2024/02/10 01:24:53;;;;;;;12.63;9.07;;;9.40;99.90;;;;;;5101936;28;20074;-77
2024/02/10 01:27:26;;;;;;;12.05;8.50;;;9.40;99.90;;;;;;5096750;27;20054;-76
2024/02/10 01:30:02;;;;;;;13.27;9.52;;;9.40;99.90;;;;;;5102874;27;20109;-76
2024/02/10 01:32:28;;;;;;;12.40;10.50;;;9.40;99.90;;;;;;5103246;28;20043;-76
2024/02/10 01:34:54;;;;;;;11.93;8.93;;;9.50;99.90;;;;;;5089050;28;20386;-77
2024/02/10 01:37:23;;;;;;;15.57;10.63;;;9.40;99.90;;;;;;5097098;27;20054;-76
2024/02/10 01:39:55;;;;;;;16.13;9.98;;;9.50;99.90;;;;;;5103556;27;20116;-77
2024/02/10 01:42:37;;;;;;;20.35;10.73;;;9.50;99.90;;;;;;5075122;28;20704;-77
2024/02/10 01:45:07;;;;;;;14.57;10.07;;;9.40;99.90;;;;;;5103018;27;20042;-77
2024/02/10 01:47:44;;;;;;;15.65;11.55;;;9.40;99.90;;;;;;5109511;27;20047;-77
2024/02/10 01:50:11;;;;;;;14.68;10.25;;;9.40;99.90;;;;;;5075706;28;20048;-77
2024/02/10 01:52:38;;;;;;;13.30;10.98;;;9.40;99.90;;;;;;5108014;27;20032;-77
2024/02/10 01:55:09;;;;;;;16.90;11.07;;;9.30;99.90;;;;;;5111234;27;20040;-76
2024/02/10 01:57:35;;;;;;;14.73;10.88;;;9.30;99.90;;;;;;5103817;28;20079;-77
2024/02/10 02:00:06;;;;;;;14.93;11.10;;;9.30;99.90;;;;;;5089353;28;20493;-77
2024/02/10 02:02:33;;;;;;;14.75;11.63;;;9.20;99.90;;;;;;5090564;28;20077;-76
2024/02/10 02:05:03;;;;;;;17.25;11.98;;;9.20;99.90;;;;;;5103866;28;20094;-77
2024/02/10 02:07:30;;;;;;;14.48;12.10;;;9.20;99.90;;;;;;5104142;28;20171;-77
2024/02/10 02:10:00;;;;;;;15.45;12.40;;;9.20;99.90;;;;;;5088410;28;20915;-76
2024/02/10 02:12:26;;;;;;;13.35;11.30;;;9.20;99.90;;;;;;5090583;28;20052;-77
2024/02/10 02:14:54;;;;;;;14.30;12.77;;;9.20;99.90;;;;;;5088978;28;20077;-77
2024/02/10 02:17:21;;;;;;;16.15;12.35;;;9.20;99.90;;;;;;5104546;27;20086;-77
2024/02/10 02:19:46;;;;;;;15.40;11.77;;;9.20;99.90;;;;;;5089785;28;20126;-77
2024/02/10 02:22:13;;;;;;;19.13;13.00;;;9.20;99.90;;;;;;5095203;27;20122;-76
2024/02/10 02:24:39;;;;;;;19.90;13.65;;;9.20;99.90;;;;;;5100930;28;20044;-77
2024/02/10 02:27:07;;;;;;;16.83;13.93;;;9.10;99.90;;;;;;5085124;28;20042;-77
2024/02/10 02:29:33;;;;;;;15.82;13.70;;;9.20;99.90;;;;;;5108983;28;20396;-77
2024/02/10 02:32:01;;;;;;;16.98;13.70;;;9.10;99.90;;;;;;5088301;28;20043;-77
2024/02/10 02:34:27;;;;;;;17.17;12.75;;;9.10;99.90;;;;;;5082567;28;20059;-77
2024/02/10 02:36:53;;;;;;;17.90;12.93;;;9.10;99.90;;;;;;5101666;28;20035;-77
2024/02/10 02:39:22;;;;;;;18.05;13.18;;;9.10;99.90;;;;;;5103297;28;20571;-76
2024/02/10 02:41:48;;;;;;;17.30;14.25;;;9.10;99.90;;;;;;5104117;28;20067;-77
2024/02/10 02:44:14;;;;;;;15.82;13.30;;;9.10;99.90;;;;;;5104478;28;20070;-77
2024/02/10 02:46:43;;;;;;;19.40;13.60;;;9.10;99.90;;;;;;5112335;28;20069;-77
2024/02/10 02:49:14;;;;;;;15.23;13.70;;;9.10;99.90;;;;;;5094189;28;20083;-77
2024/02/10 02:51:40;;;;;;;19.58;14.00;;;9.10;99.90;;;;;;5095631;28;20047;-76
2024/02/10 02:54:10;;;;;;;18.23;14.00;;;9.10;99.90;;;;;;5106008;28;20489;-76
2024/02/10 02:56:36;;;;;;;19.30;15.02;;;9.10;99.90;;;;;;5101840;28;20080;-77
2024/02/10 02:59:02;;;;;;;18.38;14.40;;;9.10;99.90;;;;;;5101389;27;20047;-77
2024/02/10 03:01:33;;;;;;;18.38;14.88;;;9.10;99.90;;;;;;5104615;28;20047;-77
2024/02/10 03:04:05;;;;;;;16.13;14.43;;;9.00;99.90;;;;;;5077865;28;20579;-77
2024/02/10 03:06:34;;;;;;;20.25;15.10;;;9.00;99.90;;;;;;5103525;27;20586;-77
2024/02/10 03:09:00;;;;;;;21.13;14.85;;;9.00;99.90;;;;;;5115825;27;20610;-76
2024/02/10 03:11:27;;;;;;;19.98;15.30;;;9.00;99.90;;;;;;5118320;27;20054;-77
2024/02/10 03:13:53;;;;;;;19.30;15.23;;;9.00;99.90;;;;;;5110867;27;20077;-77
2024/02/10 03:16:19;;;;;;;17.85;15.00;;;8.90;99.90;;;;;;5109592;27;20047;-77
2024/02/10 03:18:46;;;;;;;17.95;15.15;;;8.90;99.90;;;;;;5082339;28;20043;-77
2024/02/10 03:21:17;;;;;;;20.63;15.68;;;8.90;99.90;;;;;;5105225;27;20036;-77
2024/02/10 03:23:44;;;;;;;19.08;14.65;;;8.90;99.90;;;;;;5095355;27;20049;-76
2024/02/10 03:26:11;;;;;;;18.02;14.38;;;8.90;99.90;;;;;;5113530;27;20054;-77
2024/02/10 03:28:37;;;;;;;18.25;15.18;;;8.90;99.90;;;;;;5090887;27;20054;-77
2024/02/10 03:31:04;;;;;;;16.65;14.95;;;8.90;99.90;;;;;;5091594;28;20421;-77
2024/02/10 03:33:32;;;;;;;18.70;14.77;;;8.90;99.90;;;;;;5111014;27;20734;-77
2024/02/10 03:36:03;;;;;;;20.52;15.68;;;8.80;99.90;;;;;;5094069;28;20042;-77
2024/02/10 03:38:29;;;;;;;17.45;14.88;;;8.90;99.90;;;;;;5105538;27;20052;-77
2024/02/10 03:40:54;;;;;;;17.67;14.15;;;8.90;99.90;;;;;;5092048;28;20035;-77
2024/02/10 03:43:27;;;;;;;17.73;15.00;;;8.90;99.90;;;;;;5101997;27;20789;-77
2024/02/10 03:45:56;;;;;;;18.38;14.93;;;8.90;99.90;;;;;;5106189;27;20040;-77
2024/02/10 03:48:22;;;;;;;15.60;14.00;;;8.80;99.90;;;;;;5109714;27;20118;-77
2024/02/10 03:50:49;;;;;;;19.08;14.90;;;8.80;99.90;;;;;;5110807;27;20126;-77
2024/02/10 03:53:17;;;;;;;16.67;13.23;;;8.80;99.90;;;;;;5129229;27;20054;-77
2024/02/10 03:55:43;;;;;;;17.30;13.23;;;8.80;99.90;;;;;;5083231;28;20123;-77
2024/02/10 03:58:09;;;;;;;16.67;14.27;;;8.90;99.90;;;;;;5097821;27;20131;-77
2024/02/10 04:00:38;;;;;;;16.83;14.07;;;8.90;99.90;;;;;;5106041;27;20054;-77
2024/02/10 04:03:05;;;;;;;14.60;13.10;;;8.90;99.90;;;;;;5085951;28;20403;-77
2024/02/10 04:05:39;;;;;;;15.77;14.18;;;8.90;99.90;;;;;;5089133;28;20039;-77
2024/02/10 04:08:08;;;;;;;15.30;13.52;;;8.90;99.90;;;;;;5077933;28;20046;-77
2024/02/10 04:10:34;;;;;;;16.88;13.40;;;8.80;99.90;;;;;;5125363;27;20564;-77
2024/02/10 04:13:02;;;;;;;18.48;13.95;;;8.80;99.90;;;;;;5109587;27;20330;-77
2024/02/10 04:15:29;;;;;;;16.25;13.63;;;8.90;99.90;;;;;;5108012;27;20040;-77
2024/02/10 04:17:55;;;;;;;14.93;12.00;;;8.90;99.90;;;;;;5101927;28;20054;-77
2024/02/10 04:20:23;;;;;;;15.77;12.93;;;8.90;99.90;;;;;;5083551;28;20419;-77
2024/02/10 04:22:52;;;;;;;16.73;12.77;;;8.90;99.90;;;;;;5086361;28;20501;-77
2024/02/10 04:25:18;;;;;;;16.08;11.65;;;8.90;99.90;;;;;;5087208;28;20138;-77
2024/02/10 04:27:44;;;;;;;16.67;12.30;;;8.90;99.90;;;;;;5098174;27;20511;-77
2024/02/10 04:30:11;;;;;;;15.80;13.05;;;8.80;99.90;;;;;;5106084;27;20048;-77
2024/02/10 04:32:42;;;;;;;17.65;12.32;;;8.80;99.90;;;;;;5106118;27;20036;-77
2024/02/10 04:35:11;;;;;;;14.10;12.60;;;8.80;99.90;;;;;;5089744;27;20069;-77
2024/02/10 04:37:37;;;;;;;16.42;12.82;;;8.80;99.90;;;;;;5107163;27;20046;-78
2024/02/10 04:40:03;;;;;;;15.73;13.00;;;8.80;99.90;;;;;;5087188;27;20048;-77
2024/02/10 04:42:29;;;;;;;16.20;12.30;;;8.70;99.90;;;;;;5108710;27;20267;-77
2024/02/10 04:44:58;;;;;;;16.45;11.80;;;8.80;99.90;;;;;;5096828;27;20051;-78
2024/02/10 04:47:25;;;;;;;13.20;11.87;;;8.80;99.90;;;;;;5088596;28;20331;-77
2024/02/10 04:49:52;;;;;;;16.65;12.10;;;8.80;99.90;;;;;;5103168;27;20818;-77
2024/02/10 04:52:18;;;;;;;13.10;11.55;;;8.80;99.90;;;;;;5105617;28;20119;-76
2024/02/10 04:54:44;;;;;;;14.25;11.50;;;8.80;99.90;;;;;;5104442;27;20127;-77
2024/02/10 04:57:10;;;;;;;12.68;11.15;;;8.80;99.90;;;;;;5105208;27;20520;-76
2024/02/10 04:59:38;;;;;;;15.55;11.48;;;8.70;99.90;;;;;;5111805;27;20043;-76
2024/02/10 05:02:07;;;;;;;13.57;11.98;;;8.70;99.90;;;;;;5109198;27;20055;-76
2024/02/10 05:04:33;;;;;;;12.90;11.55;;;8.70;99.90;;;;;;5092481;27;20035;-76
2024/02/10 05:06:59;;;;;;;14.70;11.88;;;8.60;99.90;;;;;;5095871;27;20051;-76
2024/02/10 05:09:25;;;;;;;14.95;12.07;;;8.60;99.90;;;;;;5083353;28;20167;-76
2024/02/10 05:11:51;;;;;;;14.98;11.77;;;8.60;99.90;;;;;;5100738;28;20458;-77
2024/02/10 05:14:16;;;;;;;14.30;11.98;;;8.50;99.90;;;;;;5087862;28;20035;-77
2024/02/10 05:16:42;;;;;;;13.80;12.10;;;8.50;99.90;;;;;;5105106;28;20409;-77
2024/02/10 05:19:08;;;;;;;12.45;10.95;;;8.40;99.90;;;;;;5093705;28;20097;-76
2024/02/10 05:21:37;;;;;;;14.85;11.48;;;8.30;99.90;;;;;;5111303;27;20044;-77
2024/02/10 05:24:07;;;;;;;14.10;11.70;;;8.30;99.90;;;;;;5094747;27;20067;-76
2024/02/10 05:26:38;;;;;;;12.13;10.45;;;8.20;99.90;;;;;;5082139;28;20540;-76
2024/02/10 05:29:07;;;;;;;13.77;12.30;;;8.10;99.90;;;;;;5106393;27;20069;-77
2024/02/10 05:31:37;;;;;;;14.55;11.32;;;8.10;99.90;;;;;;5105166;28;21529;-78
2024/02/10 05:34:14;;;;;;;13.27;10.95;;;8.00;99.90;;;;;;5088963;28;20050;-77
2024/02/10 05:36:40;;;;;;;14.93;12.20;;;8.00;99.90;;;;;;5103626;28;20036;-77
2024/02/10 05:39:08;;;;;;;17.08;11.88;;;7.90;99.90;;;;;;5088031;28;20044;-77
2024/02/10 05:41:35;;;;;;;16.10;13.55;;;7.90;99.90;;;;;;5113662;27;20035;-77
2024/02/10 05:44:03;;;;;;;15.00;12.85;;;7.90;99.90;;;;;;5107378;27;20051;-77
2024/02/10 05:46:29;;;;;;;14.10;11.43;;;7.80;99.90;;;;;;5113204;27;20648;-77
2024/02/10 05:48:55;;;;;;;18.42;14.70;;;7.80;99.90;;;;;;5095913;28;20131;-77
2024/02/10 05:51:24;;;;;;;16.63;14.00;;;7.80;99.90;;;;;;5089353;28;20405;-77
2024/02/10 05:53:51;;;;;;;15.65;13.95;;;7.80;99.90;;;;;;5085338;28;20224;-78
2024/02/10 05:56:17;;;;;;;20.27;15.07;;;7.80;99.90;;;;;;5101060;27;20451;-77
2024/02/10 05:58:43;;;;;;;15.88;14.13;;;7.80;99.90;;;;;;5086357;28;20047;-77
2024/02/10 06:01:18;;;;;;;22.65;16.35;;;7.80;99.90;;;;;;5116117;27;20508;-78
2024/02/10 06:03:44;;;;;;;19.88;16.13;;;7.80;99.90;;;;;;5087575;27;20443;-78
2024/02/10 06:06:10;;;;;;;24.40;16.70;;;7.90;99.90;;;;;;5112733;27;20040;-78
2024/02/10 06:08:36;;;;;;;18.52;16.13;;;8.00;99.90;;;;;;5086340;28;20073;-78
2024/02/10 06:11:06;;;;;;;18.70;16.75;;;8.00;99.90;;;;;;5106473;28;20390;-78
2024/02/10 06:13:32;;;;;;;21.17;17.80;;;8.10;99.90;;;;;;5087189;28;20418;-78
2024/02/10 06:16:05;;;;;;;21.50;17.58;;;8.00;99.90;;;;;;5124510;27;20039;-78
2024/02/10 06:18:31;;;;;;;24.08;19.25;;;8.10;99.90;;;;;;5105914;27;20047;-78
2024/02/10 06:20:59;;;;;;;25.02;18.63;;;8.20;99.90;;;;;;5083133;28;20040;-78
2024/02/10 06:23:30;;;;;;;22.45;18.83;;;8.20;99.90;;;;;;5103736;27;20502;-78
2024/02/10 06:25:56;;;;;;;22.13;18.45;;;8.20;99.90;;;;;;5093394;28;20496;-78
2024/02/10 06:28:22;;;;;;;21.48;19.23;;;8.30;99.90;;;;;;5086901;28;20047;-78
2024/02/10 06:30:49;;;;;;;20.63;17.98;;;8.20;99.90;;;;;;5095419;27;20118;-78
2024/02/10 06:33:26;;;;;;;25.90;19.38;;;8.30;99.90;;;;;;5078475;28;20092;-78
2024/02/10 06:35:53;;;;;;;23.23;19.50;;;8.30;99.90;;;;;;5074031;28;20055;-78
2024/02/10 06:38:22;;;;;;;24.23;20.58;;;8.30;99.90;;;;;;5094088;28;20513;-78
2024/02/10 06:40:48;;;;;;;26.90;20.95;;;8.30;99.90;;;;;;5096795;28;20033;-77
2024/02/10 06:43:13;;;;;;;26.98;21.30;;;8.30;99.90;;;;;;5087086;28;20397;-77
2024/02/10 06:45:40;;;;;;;28.83;23.05;;;8.40;99.90;;;;;;5092610;28;20036;-76
2024/02/10 06:48:11;;;;;;;28.17;23.20;;;8.40;99.90;;;;;;5076376;28;20081;-77
2024/02/10 06:50:43;;;;;;;28.42;23.40;;;8.40;99.90;;;;;;5096987;28;20134;-77
2024/02/10 06:53:08;;;;;;;34.08;24.50;;;8.40;99.90;;;;;;5090916;28;20084;-77
2024/02/10 06:55:34;;;;;;;29.63;24.50;;;8.50;99.90;;;;;;5099534;28;20036;-77
2024/02/10 06:58:02;;;;;;;33.38;24.55;;;8.50;99.90;;;;;;5078410;28;20393;-77
2024/02/10 07:00:40;;;;;;;30.33;24.00;;;8.50;99.90;;;;;;5083115;28;20044;-77
2024/02/10 07:03:06;;;;;;;33.25;25.67;;;8.50;99.90;;;;;;5093886;28;20044;-77
2024/02/10 07:05:37;;;;;;;29.73;24.55;;;8.50;99.90;;;;;;5089881;28;20702;-77
2024/02/10 07:08:05;;;;;;;27.13;23.92;;;8.60;99.90;;;;;;5112446;28;20401;-77
2024/02/10 07:10:31;;;;;;;32.30;25.23;;;8.60;99.90;;;;;;5084842;28;20170;-77
2024/02/10 07:12:57;;;;;;;32.38;25.27;;;8.60;99.90;;;;;;5081779;28;20043;-77
2024/02/10 07:15:32;;;;;;;33.17;24.50;;;8.60;99.90;;;;;;5098515;28;20626;-77
2024/02/10 07:18:02;;;;;;;30.88;25.67;;;8.60;99.90;;;;;;5076405;28;20032;-77
2024/02/10 07:20:30;;;;;;;32.80;27.50;;;8.50;99.90;;;;;;5091923;28;20044;-77
2024/02/10 07:22:58;;;;;;;30.80;24.45;;;8.50;99.90;;;;;;5097272;28;20118;-77
2024/02/10 07:25:32;;;;;;;30.48;24.77;;;8.50;99.90;;;;;;5093294;28;20047;-77
2024/02/10 07:28:02;;;;;;;33.95;26.50;;;8.50;99.90;;;;;;5092644;28;20071;-77
2024/02/10 07:30:32;;;;;;;30.77;25.48;;;8.40;99.90;;;;;;5093137;28;20644;-77
2024/02/10 07:33:08;;;;;;;31.55;26.15;;;8.50;99.90;;;;;;5095783;28;20899;-78
2024/02/10 07:35:34;;;;;;;34.65;27.42;;;8.50;99.90;;;;;;5097006;28;20054;-77
2024/02/10 07:38:01;;;;;;;30.75;24.98;;;8.50;99.90;;;;;;5093864;28;20040;-77
2024/02/10 07:40:27;;;;;;;32.58;25.75;;;8.50;99.90;;;;;;5083762;28;20036;-78
2024/02/10 07:42:53;;;;;;;33.13;26.85;;;8.50;99.90;;;;;;5095060;28;20082;-77
2024/02/10 07:45:22;;;;;;;40.03;31.05;;;8.50;99.90;;;;;;5099914;28;20047;-77
2024/02/10 07:47:55;;;;;;;34.80;27.88;;;8.50;99.90;;;;;;5080514;28;20043;-77
2024/02/10 07:50:21;;;;;;;34.90;29.58;;;8.60;99.90;;;;;;5095698;27;20055;-77
2024/02/10 07:52:49;;;;;;;33.10;28.65;;;8.60;99.90;;;;;;5077715;28;20039;-78
2024/02/10 07:55:16;;;;;;;35.65;28.58;;;8.60;99.90;;;;;;5076577;28;20122;-77
2024/02/10 07:57:42;;;;;;;33.45;27.67;;;8.70;99.90;;;;;;5095249;27;20513;-77
2024/02/10 08:00:16;;;;;;;34.78;28.77;;;8.70;99.90;;;;;;5078334;28;20092;-77
2024/02/10 08:02:43;;;;;;;32.28;28.42;;;8.80;99.90;;;;;;5084807;28;20047;-77
2024/02/10 08:05:10;;;;;;;34.00;27.67;;;8.90;99.90;;;;;;5096202;27;20389;-77
2024/02/10 08:07:37;;;;;;;35.65;27.83;;;8.90;99.90;;;;;;5092765;28;20084;-77
2024/02/10 08:10:06;;;;;;;36.38;29.52;;;8.90;99.90;;;;;;5088636;28;20065;-77
2024/02/10 08:12:33;;;;;;;34.03;27.50;;;9.00;99.90;;;;;;5096997;27;20267;-77
2024/02/10 08:14:59;;;;;;;31.40;27.73;;;9.00;99.90;;;;;;5085255;28;20036;-77
2024/02/10 08:17:32;;;;;;;32.83;27.25;;;9.00;99.90;;;;;;5100028;28;20043;-77
2024/02/10 08:19:58;;;;;;;32.13;25.48;;;9.10;99.90;;;;;;5102085;27;20040;-77
2024/02/10 08:22:30;;;;;;;31.10;26.58;;;9.10;99.90;;;;;;5097430;27;20039;-77
2024/02/10 08:24:58;;;;;;;32.15;27.05;;;9.10;99.90;;;;;;5097641;28;20035;-77
2024/02/10 08:27:25;;;;;;;30.90;26.38;;;9.20;99.90;;;;;;5110153;27;20769;-77
2024/02/10 08:29:55;;;;;;;29.02;25.70;;;9.20;99.90;;;;;;5102620;27;20724;-77
2024/02/10 08:32:21;;;;;;;30.40;26.08;;;9.20;99.90;;;;;;5094368;27;20055;-76
2024/02/10 08:34:48;;;;;;;31.88;24.90;;;9.30;99.90;;;;;;5105697;27;20069;-77
2024/02/10 08:37:20;;;;;;;29.88;26.52;;;9.30;99.90;;;;;;5075867;28;20131;-76
2024/02/10 08:39:49;;;;;;;27.92;24.13;;;9.30;99.90;;;;;;5100312;27;20043;-77
2024/02/10 08:42:15;;;;;;;27.15;24.30;;;9.40;99.90;;;;;;5093701;27;20048;-77
2024/02/10 08:44:45;;;;;;;26.83;23.92;;;9.30;99.90;;;;;;5088090;27;20401;-77
2024/02/10 08:47:12;;;;;;;25.70;22.95;;;9.40;99.90;;;;;;5078717;28;20036;-77
2024/02/10 08:49:42;;;;;;;25.85;23.13;;;9.40;99.90;;;;;;5104019;27;20082;-76
2024/02/10 08:52:15;;;;;;;;;;;9.50;99.90;;;;;;5104489;27;20580;-77
2024/02/10 08:54:44;;;;;;;24.50;21.60;;;9.50;99.90;;;;;;5100951;27;19927;-77
2024/02/10 08:57:10;;;;;;;25.13;21.73;;;9.50;99.90;;;;;;5078953;27;20035;-77
2024/02/10 08:59:50;;;;;;;23.55;21.15;;;9.50;99.90;;;;;;5077680;27;20044;-76
2024/02/10 09:02:16;;;;;;;22.67;20.35;;;9.60;99.90;;;;;;5075882;28;20048;-76
2024/02/10 09:04:44;;;;;;;24.80;20.92;;;9.60;99.90;;;;;;5094868;28;20150;-77
2024/02/10 09:07:10;;;;;;;21.85;19.52;;;9.70;99.90;;;;;;5092736;28;20405;-77
2024/02/10 09:09:36;;;;;;;24.52;21.05;;;9.70;99.90;;;;;;5088233;28;20040;-76
2024/02/10 09:12:05;;;;;;;24.52;21.20;;;9.70;99.90;;;;;;5080480;27;20542;-78
2024/02/10 09:14:32;;;;;;;22.58;19.95;;;9.70;99.90;;;;;;5097244;27;20250;-78
2024/02/10 09:16:59;;;;;;;21.77;19.48;;;9.70;99.90;;;;;;5084235;28;20158;-78
2024/02/10 09:19:25;;;;;;;22.95;19.33;;;9.80;99.90;;;;;;5091385;28;20040;-78
2024/02/10 09:21:54;;;;;;;20.15;18.02;;;9.80;99.90;;;;;;5082271;28;20058;-78
2024/02/10 09:24:24;;;;;;;19.67;17.58;;;9.90;99.90;;;;;;5075527;27;20075;-79
2024/02/10 09:26:49;;;;;;;21.70;18.25;;;9.90;99.90;;;;;;5100557;27;20044;-79
2024/02/10 09:29:15;;;;;;;19.00;17.10;;;10.00;99.90;;;;;;5084080;28;20397;-78
2024/02/10 09:31:45;;;;;;;20.23;18.05;;;10.00;99.90;;;;;;5082800;27;20414;-76
2024/02/10 09:34:12;;;;;;;18.38;16.48;;;10.00;99.90;;;;;;5086113;28;20486;-77
2024/02/10 09:36:43;;;;;;;21.80;18.13;;;10.00;99.90;;;;;;5100441;28;20494;-76
2024/02/10 09:39:12;;;;;;;18.85;16.95;;;10.10;99.90;;;;;;5090051;28;20127;-76
2024/02/10 09:41:41;;;;;;;21.25;17.45;;;10.10;99.90;;;;;;5109337;27;20394;-77
2024/02/10 09:44:11;;;;;;;18.58;16.67;;;10.20;99.90;;;;;;5085669;28;20089;-77
2024/02/10 09:46:38;;;;;;;19.25;17.23;;;10.20;99.90;;;;;;5107895;27;20486;-76
2024/02/10 09:49:07;;;;;;;18.95;17.05;;;10.20;99.90;;;;;;5098119;28;20400;-77
2024/02/10 09:51:39;;;;;;;20.13;17.92;;;10.20;99.90;;;;;;5089367;28;20097;-79
2024/02/10 09:54:15;;;;;;;23.02;19.00;;;10.30;99.90;;;;;;5084961;28;20505;-78
2024/02/10 09:56:43;;;;;;;18.90;16.90;;;10.30;99.90;;;;;;5085471;28;20052;-78
2024/02/10 09:59:13;;;;;;;19.67;17.67;;;10.30;99.90;;;;;;5099349;28;20044;-78
2024/02/10 10:01:39;;;;;;;;;;;10.30;99.90;;;;;;5099186;27;20134;-78
2024/02/10 10:04:11;;;;;;;18.45;16.55;;;10.30;99.90;;;;;;5084339;28;20030;-78
2024/02/10 10:06:43;;;;;;;20.00;16.73;;;10.30;99.90;;;;;;5085827;28;20130;-78
2024/02/10 10:09:21;;;;;;;;;;;10.30;99.90;;;;;;5091274;27;20510;-78
2024/02/10 10:11:49;;;;;;;17.45;15.68;;;10.30;99.90;;;;;;5085206;28;19924;-78
2024/02/10 10:14:20;;;;;;;16.92;15.05;;;10.40;99.90;;;;;;5106840;27;20393;-78
2024/02/10 10:17:02;;;;;;;18.35;15.57;;;10.40;99.90;;;;;;5100620;28;20559;-78
2024/02/10 10:19:29;;;;;;;17.25;15.40;;;10.40;99.90;;;;;;5099038;28;20046;-78
2024/02/10 10:21:58;;;;;;;16.77;15.00;;;10.40;99.90;;;;;;5079680;28;20047;-78
2024/02/10 10:24:25;;;;;;;17.65;15.55;;;10.40;99.90;;;;;;5090232;28;20063;-79
2024/02/10 10:26:55;;;;;;;16.55;14.50;;;10.50;99.90;;;;;;5102082;27;20043;-78
2024/02/10 10:29:21;;;;;;;17.08;15.40;;;10.50;99.90;;;;;;5104319;28;20047;-78
2024/02/10 10:31:56;;;;;;;15.23;13.70;;;10.50;99.90;;;;;;5106994;27;20599;-78
2024/02/10 10:34:28;;;;;;;13.98;12.55;;;10.60;99.90;;;;;;5088088;28;20032;-77
2024/02/10 10:36:56;;;;;;;15.95;14.25;;;10.60;99.90;;;;;;5091952;28;20036;-77
2024/02/10 10:39:27;;;;;;;14.75;13.13;;;10.70;99.90;;;;;;5102587;28;20055;-78
2024/02/10 10:41:58;;;;;;;15.05;13.32;;;10.70;99.90;;;;;;5092282;28;20122;-77
2024/02/10 10:44:26;;;;;;;13.73;12.32;;;10.70;99.90;;;;;;5083672;28;20059;-77
2024/02/10 10:46:52;;;;;;;13.02;11.77;;;10.80;99.90;;;;;;5109237;28;20187;-76
2024/02/10 10:49:18;;;;;;;12.75;11.55;;;10.90;99.90;;;;;;5109464;28;20157;-76
2024/02/10 10:51:59;;;;;;;13.13;11.73;;;10.90;99.90;;;;;;5113882;28;20137;-76
2024/02/10 10:54:39;;;;;;;12.45;11.23;;;10.90;99.90;;;;;;5082137;28;20046;-77
2024/02/10 10:57:16;;;;;;;12.60;11.30;;;11.00;99.90;;;;;;5101652;28;20043;-76
2024/02/10 10:59:54;;;;;;;12.88;11.68;;;11.10;99.90;;;;;;5092627;28;20086;-77
2024/02/10 11:02:24;;;;;;;12.50;11.30;;;11.10;99.90;;;;;;5084416;28;20066;-77
2024/02/10 11:05:03;;;;;;;12.68;11.30;;;11.20;99.90;;;;;;5077785;28;20066;-77
2024/02/10 11:07:33;;;;;;;11.80;10.70;;;11.20;99.90;;;;;;5115125;28;20043;-76
2024/02/10 11:10:00;;;;;;;11.80;10.48;;;11.20;99.90;;;;;;5104114;28;20039;-78
2024/02/10 11:12:31;;;;;;;12.55;11.23;;;11.30;99.90;;;;;;5105162;28;20049;-77
2024/02/10 11:14:58;;;;;;;12.98;11.05;;;11.30;99.90;;;;;;5092142;28;20050;-78
2024/02/10 11:17:29;;;;;;;13.05;10.85;;;11.30;99.90;;;;;;5102983;28;20085;-77
2024/02/10 11:20:05;;;;;;;11.57;10.38;;;11.30;99.90;;;;;;5108529;27;20047;-77
2024/02/10 11:22:37;;;;;;;11.73;10.25;;;11.40;99.90;;;;;;5101629;28;20467;-77
2024/02/10 11:25:11;;;;;;;10.18;9.18;;;11.40;99.90;;;;;;5087901;28;20036;-77
2024/02/10 11:27:40;;;;;;;10.93;9.73;;;11.50;99.90;;;;;;5106468;28;20051;-77
2024/02/10 11:30:07;;;;;;;10.60;9.60;;;11.50;99.90;;;;;;5108422;28;20371;-78
2024/02/10 11:32:33;;;;;;;10.65;9.50;;;11.50;99.90;;;;;;5085094;28;20036;-77
2024/02/10 11:35:03;;;;;;;9.77;8.75;;;11.60;99.90;;;;;;5106132;28;20066;-77
2024/02/10 11:37:30;;;;;;;10.18;9.18;;;11.60;99.90;;;;;;5093429;28;20040;-76
2024/02/10 11:39:57;;;;;;;10.93;8.77;;;11.60;99.90;;;;;;5096610;28;20040;-76
2024/02/10 11:43:14;;;;;;;10.15;9.15;;;11.60;99.90;;;;;;5136464;27;20173;-77
2024/02/10 11:45:43;;;;;;;10.88;8.85;;;11.60;99.90;;;;;;5108298;27;20057;-77
2024/02/10 11:48:17;;;;;;;9.88;8.65;;;11.70;99.90;;;;;;5140663;27;20063;-77
2024/02/10 11:51:05;;;;;;;9.55;7.75;;;11.80;99.90;;;;;;5140999;27;20042;-78
2024/02/10 11:53:34;;;;;;;8.95;7.88;;;11.80;99.90;;;;;;5110727;27;20055;-77
2024/02/10 11:56:05;;;;;;;10.25;8.15;;;11.80;99.90;;;;;;5145376;27;20050;-77
2024/02/10 12:04:47;;;;;;;10.65;8.75;;;11.90;99.90;;;;;;5134458;27;20112;-78
2024/02/10 12:07:20;;;;;;;8.65;7.78;;;11.90;99.90;;;;;;5120896;27;20116;-79
2024/02/10 12:09:47;;;;;;;8.50;7.28;;;12.00;99.90;;;;;;5103063;28;20070;-76
2024/02/10 12:19:46;;;;;;;10.23;7.97;;;12.00;99.90;;;;;;5096965;27;20700;-77
2024/02/10 12:22:14;;;;;;;10.15;8.98;;;12.00;99.90;;;;;;5104812;27;20044;-77
2024/02/10 12:24:43;;;;;;;9.32;8.10;;;12.00;99.90;;;;;;5063251;28;20051;-78
2024/02/10 12:27:08;;;;;;;9.75;8.27;;;12.00;99.90;;;;;;5064025;28;20147;-77
2024/02/10 12:29:40;;;;;;;9.07;7.55;;;12.10;99.90;;;;;;5063413;28;20541;-78
2024/02/10 12:32:32;;;;;;;8.18;7.30;;;12.10;99.90;;;;;;5072610;28;20506;-78
2024/02/10 12:35:07;;;;;;;9.32;7.80;;;12.10;99.90;;;;;;5078332;28;20041;-77
2024/02/10 12:37:33;;;;;;;10.60;7.68;;;12.10;99.90;;;;;;5065625;28;20052;-78
2024/02/10 12:40:03;;;;;;;10.05;7.15;;;12.20;99.90;;;;;;5087439;28;21374;-77
2024/02/10 12:42:42;;;;;;;9.55;7.35;;;12.10;99.90;;;;;;5072228;28;20083;-78
2024/02/10 12:45:10;;;;;;;8.48;6.95;;;12.20;99.90;;;;;;5066552;28;20040;-77
2024/02/10 12:47:37;;;;;;;8.70;6.93;;;12.20;99.90;;;;;;5082521;28;20048;-78
2024/02/10 12:50:07;;;;;;;8.27;6.90;;;12.20;99.90;;;;;;5097324;28;20333;-78
2024/02/10 12:52:33;;;;;;;9.17;7.23;;;12.20;99.90;;;;;;5085408;28;20075;-77
2024/02/10 12:55:00;;;;;;;8.98;6.78;;;12.20;99.90;;;;;;5107020;28;20490;-77
2024/02/10 12:57:27;;;;;;;10.15;6.97;;;12.20;99.90;;;;;;5075063;28;20052;-78
2024/02/10 12:59:55;;;;;;;8.20;6.75;;;12.30;99.90;;;;;;5081335;28;20093;-77